createdAt,value
2023-05-20T00:00:59.467Z,11.31
2023-05-20T00:03:27.819Z,11.31
2023-05-20T00:05:56.120Z,11.29
2023-05-20T00:08:24.378Z,11.23
2023-05-20T00:10:52.693Z,11.18
2023-05-20T00:13:21.209Z,11.12
2023-05-20T00:15:49.525Z,11.08
2023-05-20T00:18:17.856Z,11.07
2023-05-20T00:20:46.064Z,11.02
2023-05-20T00:23:14.371Z,11.00
2023-05-20T00:25:42.674Z,10.94
2023-05-20T00:28:11.273Z,10.89
2023-05-20T00:30:43.853Z,10.84
2023-05-20T00:33:12.835Z,10.77
2023-05-20T00:35:41.239Z,10.72
2023-05-20T00:38:09.606Z,10.68
2023-05-20T00:40:37.862Z,10.62
2023-05-20T00:43:06.172Z,10.55
2023-05-20T00:45:34.840Z,10.54
2023-05-20T00:48:04.378Z,10.55
2023-05-20T00:50:32.890Z,10.54
2023-05-20T00:53:01.767Z,10.50
2023-05-20T00:55:30.185Z,10.47
2023-05-20T00:57:59.094Z,10.41
2023-05-20T01:00:27.679Z,10.42
2023-05-20T01:02:57.108Z,10.46
2023-05-20T01:05:25.530Z,10.47
2023-05-20T01:07:54.070Z,10.46
2023-05-20T01:10:27.546Z,10.49
2023-05-20T01:13:00.146Z,10.49
2023-05-20T01:15:30.591Z,10.46
2023-05-20T01:18:06.282Z,10.46
2023-05-20T01:20:36.138Z,10.43
2023-05-20T01:23:04.452Z,10.43
2023-05-20T01:25:32.888Z,10.47
2023-05-20T01:28:01.766Z,10.52
2023-05-20T01:30:35.743Z,10.56
2023-05-20T01:33:12.566Z,10.58
2023-05-20T01:35:42.122Z,10.57
2023-05-20T01:38:12.277Z,10.57
2023-05-20T01:40:43.022Z,10.60
2023-05-20T01:43:11.334Z,10.62
2023-05-20T01:45:42.262Z,10.64
2023-05-20T01:48:12.432Z,10.68
2023-05-20T01:50:40.910Z,10.72
2023-05-20T01:53:09.912Z,10.74
2023-05-20T01:55:38.211Z,10.72
2023-05-20T01:58:06.565Z,10.69
2023-05-20T02:00:36.336Z,10.65
2023-05-20T02:03:05.861Z,10.60
2023-05-20T02:05:34.545Z,10.58
2023-05-20T02:08:06.255Z,10.59
2023-05-20T02:10:34.577Z,10.60
2023-05-20T02:13:02.824Z,10.59
2023-05-20T02:15:31.438Z,10.63
2023-05-20T02:17:59.926Z,10.64
2023-05-20T02:20:28.930Z,10.63
2023-05-20T02:22:57.178Z,10.61
2023-05-20T02:25:25.678Z,10.56
2023-05-20T02:27:54.025Z,10.50
2023-05-20T02:30:22.340Z,10.47
2023-05-20T02:32:50.969Z,10.47
2023-05-20T02:35:19.324Z,10.45
2023-05-20T02:37:48.493Z,10.45
2023-05-20T02:40:17.514Z,10.46
2023-05-20T02:42:46.907Z,10.47
2023-05-20T02:45:15.064Z,10.42
2023-05-20T02:47:43.608Z,10.35
2023-05-20T02:50:11.920Z,10.29
2023-05-20T02:52:42.651Z,10.24
2023-05-20T02:55:11.572Z,10.22
2023-05-20T02:57:40.166Z,10.22
2023-05-20T03:00:13.720Z,10.22
2023-05-20T03:02:42.188Z,10.22
2023-05-20T03:05:11.106Z,10.22
2023-05-20T03:07:39.539Z,10.20
2023-05-20T03:10:09.526Z,10.19
2023-05-20T03:12:39.800Z,10.17
2023-05-20T03:15:08.981Z,10.12
2023-05-20T03:17:37.785Z,10.12
2023-05-20T03:20:07.571Z,10.13
2023-05-20T03:22:36.327Z,10.19
2023-05-20T03:25:06.256Z,10.27
2023-05-20T03:27:34.734Z,10.34
2023-05-20T03:30:05.242Z,10.39
2023-05-20T03:32:33.780Z,10.46
2023-05-20T03:35:02.045Z,10.49
2023-05-20T03:37:30.398Z,10.58
2023-05-20T03:39:58.733Z,10.70
2023-05-20T03:42:27.122Z,10.85
2023-05-20T03:44:56.526Z,11.04
2023-05-20T03:47:25.959Z,11.19
2023-05-20T03:49:54.698Z,11.29
2023-05-20T03:52:23.087Z,11.41
2023-05-20T03:54:51.524Z,11.53
2023-05-20T03:57:19.904Z,11.58
2023-05-20T03:59:48.410Z,11.58
2023-05-20T04:02:16.861Z,11.62
2023-05-20T04:04:45.773Z,11.66
2023-05-20T04:07:14.999Z,11.73
2023-05-20T04:09:44.427Z,11.84
2023-05-20T04:12:14.103Z,11.97
2023-05-20T04:14:42.495Z,12.12
2023-05-20T04:17:11.214Z,12.24
2023-05-20T04:19:39.538Z,12.32
2023-05-20T04:22:08.057Z,12.47
2023-05-20T04:24:38.196Z,12.64
2023-05-20T04:27:06.429Z,12.75
2023-05-20T04:29:34.882Z,12.82
2023-05-20T04:32:03.669Z,12.90
2023-05-20T04:34:35.323Z,12.99
2023-05-20T04:37:04.131Z,13.08
2023-05-20T04:39:33.086Z,13.20
2023-05-20T04:42:03.089Z,13.28
2023-05-20T04:44:31.407Z,13.36
2023-05-20T04:46:59.758Z,13.45
2023-05-20T04:49:30.157Z,13.56
2023-05-20T04:51:58.812Z,13.65
2023-05-20T04:54:27.004Z,13.69
2023-05-20T04:56:55.343Z,13.72
2023-05-20T04:59:23.583Z,13.83
2023-05-20T05:01:52.303Z,13.90
2023-05-20T05:04:20.743Z,13.90
2023-05-20T05:06:49.676Z,13.91
2023-05-20T05:09:18.054Z,14.01
2023-05-20T05:11:46.874Z,14.16
2023-05-20T05:14:15.215Z,14.32
2023-05-20T05:16:43.502Z,14.49
2023-05-20T05:19:12.058Z,14.71
2023-05-20T05:21:40.626Z,15.07
2023-05-20T05:24:08.905Z,15.62
2023-05-20T05:26:37.578Z,16.06
2023-05-20T05:29:06.281Z,16.36
2023-05-20T05:31:34.664Z,16.42
2023-05-20T05:34:02.898Z,16.66
2023-05-20T05:36:34.200Z,17.09
2023-05-20T05:39:02.594Z,17.69
2023-05-20T05:41:31.237Z,18.13
2023-05-20T05:44:00.218Z,18.64
2023-05-20T05:46:29.243Z,19.23
2023-05-20T05:48:59.148Z,19.79
2023-05-20T05:51:29.179Z,20.03
2023-05-20T05:53:58.569Z,20.29
2023-05-20T05:56:26.922Z,20.63
2023-05-20T05:58:55.972Z,20.82
2023-05-20T06:01:26.096Z,21.06
2023-05-20T06:03:54.450Z,20.93
2023-05-20T06:06:23.885Z,21.14
2023-05-20T06:08:52.226Z,21.17
2023-05-20T06:11:21.932Z,21.42
2023-05-20T06:13:50.848Z,21.81
2023-05-20T06:16:19.387Z,22.52
2023-05-20T06:18:50.470Z,22.89
2023-05-20T06:21:19.701Z,23.01
2023-05-20T06:23:47.958Z,22.64
2023-05-20T06:26:16.457Z,22.42
2023-05-20T06:28:44.657Z,22.29
2023-05-20T06:31:13.101Z,22.08
2023-05-20T06:33:41.660Z,21.84
2023-05-20T06:36:13.066Z,21.58
2023-05-20T06:38:42.261Z,21.47
2023-05-20T06:41:11.168Z,20.95
2023-05-20T06:43:40.769Z,20.86
2023-05-20T06:46:32.172Z,20.81
2023-05-20T06:49:07.102Z,20.70
2023-05-20T06:51:36.386Z,20.62
2023-05-20T06:54:05.242Z,20.49
2023-05-20T06:56:33.729Z,20.27
2023-05-20T06:59:02.002Z,20.23
2023-05-20T07:01:31.090Z,20.23
2023-05-20T07:03:59.521Z,20.30
2023-05-20T07:06:27.942Z,20.35
2023-05-20T07:08:56.310Z,20.32
2023-05-20T07:11:24.924Z,20.26
2023-05-20T07:13:53.707Z,20.08
2023-05-20T07:16:22.994Z,20.08
2023-05-20T07:18:55.023Z,20.08
2023-05-20T07:21:23.446Z,20.06
2023-05-20T07:24:17.652Z,20.02
2023-05-20T07:26:46.047Z,19.96
2023-05-20T07:29:14.319Z,19.91
2023-05-20T07:31:42.773Z,19.85
2023-05-20T07:34:11.149Z,19.82
2023-05-20T07:36:39.431Z,19.83
2023-05-20T07:39:12.524Z,19.73
2023-05-20T07:41:43.509Z,20.09
2023-05-20T07:44:13.193Z,20.79
2023-05-20T07:46:45.510Z,21.04
2023-05-20T07:49:14.147Z,21.41
2023-05-20T07:51:42.480Z,21.97
2023-05-20T07:54:10.892Z,22.69
2023-05-20T07:56:39.828Z,23.44
2023-05-20T07:59:09.284Z,24.05
2023-05-20T08:01:44.630Z,24.87
2023-05-20T08:04:13.642Z,25.27
2023-05-20T08:06:43.431Z,25.58
2023-05-20T08:09:19.374Z,26.08
2023-05-20T08:11:50.983Z,26.63
2023-05-20T08:14:19.345Z,26.67
2023-05-20T08:16:51.034Z,26.81
2023-05-20T08:19:21.170Z,26.60
2023-05-20T08:21:50.044Z,26.56
2023-05-20T08:24:18.474Z,26.99
2023-05-20T08:26:46.982Z,27.51
2023-05-20T08:29:15.761Z,27.49
2023-05-20T08:31:44.066Z,27.33
2023-05-20T08:34:14.161Z,27.17
2023-05-20T08:36:42.494Z,27.25
2023-05-20T08:39:11.187Z,27.21
2023-05-20T08:41:39.758Z,26.98
2023-05-20T08:44:11.206Z,27.32
2023-05-20T08:46:40.998Z,27.35
2023-05-20T08:49:09.665Z,27.55
2023-05-20T08:51:39.334Z,27.11
2023-05-20T08:54:09.397Z,27.05
2023-05-20T08:56:39.545Z,27.23
2023-05-20T08:59:08.849Z,27.10
2023-05-20T09:01:43.567Z,27.08
2023-05-20T09:04:12.071Z,27.14
2023-05-20T09:06:47.595Z,26.92
2023-05-20T09:09:16.070Z,26.99
2023-05-20T09:11:44.354Z,27.25
2023-05-20T09:14:12.695Z,27.39
2023-05-20T09:16:41.760Z,27.20
2023-05-20T09:19:10.868Z,26.99
2023-05-20T09:21:42.056Z,27.02
2023-05-20T09:24:10.401Z,26.68
2023-05-20T09:26:38.678Z,25.97
2023-05-20T09:29:08.668Z,25.42
2023-05-20T09:31:39.275Z,25.02
2023-05-20T09:34:08.334Z,24.43
2023-05-20T09:36:37.087Z,23.95
2023-05-20T09:39:08.283Z,23.65
2023-05-20T09:42:04.012Z,23.08
2023-05-20T09:44:34.364Z,22.66
2023-05-20T09:47:03.335Z,22.21
2023-05-20T09:49:33.031Z,21.63
2023-05-20T09:52:03.837Z,21.15
2023-05-20T09:54:32.390Z,21.00
2023-05-20T09:57:01.173Z,20.82
2023-05-20T09:59:31.437Z,20.54
2023-05-20T10:02:00.649Z,20.32
2023-05-20T10:04:31.233Z,20.09
2023-05-20T10:07:20.969Z,19.88
2023-05-20T10:10:02.444Z,19.66
2023-05-20T10:12:50.771Z,19.50
2023-05-20T10:15:25.058Z,19.25
2023-05-20T10:18:30.774Z,19.00
2023-05-20T10:20:59.090Z,18.53
2023-05-20T10:23:31.339Z,18.48
2023-05-20T10:26:06.542Z,18.48
2023-05-20T10:28:36.903Z,18.48
2023-05-20T10:31:24.241Z,18.61
2023-05-20T10:33:53.857Z,18.65
2023-05-20T10:36:24.633Z,18.75
2023-05-20T10:38:56.774Z,18.89
2023-05-20T10:41:27.826Z,18.95
2023-05-20T10:44:06.821Z,19.11
2023-05-20T10:46:53.851Z,19.35
2023-05-20T10:49:27.409Z,19.63
2023-05-20T10:51:56.394Z,19.84
2023-05-20T10:54:24.936Z,20.01
2023-05-20T10:56:54.272Z,20.09
2023-05-20T10:59:22.986Z,20.26
2023-05-20T11:01:51.464Z,20.45
2023-05-20T11:04:19.876Z,20.56
2023-05-20T11:06:54.402Z,20.69
2023-05-20T11:09:23.633Z,21.16
2023-05-20T11:11:53.721Z,21.82
2023-05-20T11:14:22.495Z,22.07
2023-05-20T11:16:56.483Z,22.33
2023-05-20T11:19:25.573Z,22.18
2023-05-20T11:21:53.969Z,21.83
2023-05-20T11:24:29.220Z,21.69
2023-05-20T11:26:58.229Z,21.63
2023-05-20T11:29:27.468Z,21.52
2023-05-20T11:31:56.459Z,21.94
2023-05-20T11:34:26.860Z,22.53
2023-05-20T11:36:57.481Z,22.91
2023-05-20T11:39:29.783Z,23.37
2023-05-20T11:41:58.530Z,23.68
2023-05-20T11:44:26.876Z,23.95
2023-05-20T11:47:01.109Z,23.88
2023-05-20T11:49:31.031Z,24.11
2023-05-20T11:51:59.342Z,24.42
2023-05-20T11:54:27.769Z,24.36
2023-05-20T11:56:56.768Z,24.11
2023-05-20T11:59:25.379Z,23.96
2023-05-20T12:01:53.820Z,24.03
2023-05-20T12:04:22.134Z,24.32
2023-05-20T12:06:51.203Z,24.42
2023-05-20T12:09:20.248Z,24.71
2023-05-20T12:11:48.462Z,24.79
2023-05-20T12:14:16.802Z,24.91
2023-05-20T12:16:45.074Z,24.53
2023-05-20T12:19:13.318Z,23.96
2023-05-20T12:21:41.631Z,24.09
2023-05-20T12:24:11.294Z,23.88
2023-05-20T12:26:40.492Z,23.66
2023-05-20T12:29:08.803Z,23.77
2023-05-20T12:31:37.115Z,23.43
2023-05-20T12:34:05.386Z,23.06
2023-05-20T12:36:34.006Z,22.73
2023-05-20T12:39:02.280Z,22.28
2023-05-20T12:41:30.974Z,21.89
2023-05-20T12:43:59.313Z,21.45
2023-05-20T12:46:27.652Z,21.45
2023-05-20T12:48:56.136Z,21.42
2023-05-20T12:51:24.356Z,21.76
2023-05-20T12:53:52.712Z,22.02
2023-05-20T12:56:21.329Z,22.33
2023-05-20T12:58:49.663Z,22.44
2023-05-20T13:01:18.008Z,22.58
2023-05-20T13:03:47.450Z,22.76
2023-05-20T13:06:15.784Z,22.73
2023-05-20T13:08:45.585Z,22.83
2023-05-20T13:11:13.930Z,23.07
2023-05-20T13:13:42.248Z,23.21
2023-05-20T13:16:10.769Z,23.21
2023-05-20T13:18:39.251Z,23.19
2023-05-20T13:21:08.112Z,23.34
2023-05-20T13:23:37.228Z,23.38
2023-05-20T13:26:05.625Z,23.40
2023-05-20T13:28:34.149Z,23.33
2023-05-20T13:31:07.087Z,23.36
2023-05-20T13:33:35.480Z,23.41
2023-05-20T13:36:04.002Z,23.47
2023-05-20T13:38:32.149Z,23.56
2023-05-20T13:41:00.850Z,23.73
2023-05-20T13:43:29.538Z,23.79
2023-05-20T13:45:57.945Z,23.42
2023-05-20T13:48:26.283Z,23.16
2023-05-20T13:50:54.485Z,22.83
2023-05-20T13:53:23.163Z,22.66
2023-05-20T13:55:51.468Z,22.78
2023-05-20T13:58:19.756Z,22.77
2023-05-20T14:00:48.246Z,22.77
2023-05-20T14:03:16.728Z,22.87
2023-05-20T14:05:45.321Z,22.89
2023-05-20T14:08:13.635Z,23.02
2023-05-20T14:10:41.998Z,23.11
2023-05-20T14:13:10.861Z,23.10
2023-05-20T14:15:39.173Z,23.26
2023-05-20T14:18:07.461Z,23.30
2023-05-20T14:20:35.978Z,22.97
2023-05-20T14:23:04.603Z,22.60
2023-05-20T14:25:32.901Z,21.98
2023-05-20T14:28:01.281Z,21.35
2023-05-20T14:30:29.682Z,20.82
2023-05-20T14:32:58.235Z,20.46
2023-05-20T14:35:26.547Z,20.13
2023-05-20T14:37:54.929Z,19.80
2023-05-20T14:40:23.378Z,19.63
2023-05-20T14:42:51.664Z,19.24
2023-05-20T14:45:20.033Z,19.04
2023-05-20T14:47:48.357Z,18.84
2023-05-20T14:50:16.765Z,18.70
2023-05-20T14:52:45.132Z,18.54
2023-05-20T14:55:13.343Z,18.36
2023-05-20T14:57:41.602Z,18.19
2023-05-20T15:00:10.777Z,18.08
2023-05-20T15:02:39.092Z,17.72
2023-05-20T15:05:07.771Z,17.70
2023-05-20T15:07:36.138Z,17.55
2023-05-20T15:10:05.197Z,17.49
2023-05-20T15:12:33.643Z,17.32
2023-05-20T15:15:01.920Z,17.28
2023-05-20T15:17:30.233Z,17.14
2023-05-20T15:19:58.567Z,17.01
2023-05-20T15:22:26.868Z,16.92
2023-05-20T15:24:55.121Z,16.85
2023-05-20T15:27:23.382Z,16.83
2023-05-20T15:29:51.726Z,16.78
2023-05-20T15:32:20.263Z,16.75
2023-05-20T15:34:48.662Z,16.77
2023-05-20T15:37:16.994Z,16.80
2023-05-20T15:39:45.200Z,16.88
2023-05-20T15:42:14.183Z,16.99
2023-05-20T15:44:42.498Z,17.07
2023-05-20T15:47:10.965Z,17.12
2023-05-20T15:49:39.360Z,17.24
2023-05-20T15:52:07.716Z,17.36
2023-05-20T15:54:36.075Z,17.44
2023-05-20T15:57:05.194Z,17.50
2023-05-20T15:59:33.533Z,17.56
2023-05-20T16:02:01.931Z,17.58
2023-05-20T16:04:30.401Z,17.65
2023-05-20T16:06:59.093Z,17.72
2023-05-20T16:09:27.374Z,17.61
2023-05-20T16:11:56.481Z,17.45
2023-05-20T16:14:24.870Z,17.29
2023-05-20T16:16:53.049Z,17.12
2023-05-20T16:19:21.397Z,16.92
2023-05-20T16:21:49.661Z,16.62
2023-05-20T16:24:17.990Z,16.52
2023-05-20T16:26:46.481Z,16.31
2023-05-20T16:29:16.522Z,16.14
2023-05-20T16:31:47.119Z,16.00
2023-05-20T16:34:16.887Z,15.88
2023-05-20T16:36:46.320Z,15.72
2023-05-20T16:39:15.221Z,15.58
2023-05-20T16:41:43.868Z,15.36
2023-05-20T16:44:12.034Z,15.03
2023-05-20T16:46:40.397Z,14.62
2023-05-20T16:49:08.640Z,14.28
2023-05-20T16:51:37.236Z,13.98
2023-05-20T16:54:06.036Z,13.74
2023-05-20T16:56:35.549Z,13.57
2023-05-20T16:59:03.813Z,13.56
2023-05-20T17:01:32.266Z,13.58
2023-05-20T17:04:00.725Z,13.58
2023-05-20T17:06:29.032Z,13.52
2023-05-20T17:08:57.372Z,13.41
2023-05-20T17:11:26.186Z,13.22
2023-05-20T17:13:54.432Z,13.20
2023-05-20T17:16:22.680Z,13.15
2023-05-20T17:18:50.964Z,13.20
2023-05-20T17:21:20.770Z,13.24
2023-05-20T17:23:49.176Z,13.25
2023-05-20T17:26:17.720Z,13.21
2023-05-20T17:28:46.015Z,13.16
2023-05-20T17:31:14.309Z,13.08
2023-05-20T17:33:42.695Z,13.00
2023-05-20T17:36:11.609Z,12.88
2023-05-20T17:38:40.036Z,12.85
2023-05-20T17:41:08.292Z,12.86
2023-05-20T17:43:36.569Z,12.87
2023-05-20T17:46:05.062Z,12.81
2023-05-20T17:48:33.337Z,12.66
2023-05-20T17:51:02.103Z,12.55
2023-05-20T17:53:30.697Z,12.46
2023-05-20T17:55:59.016Z,12.42
2023-05-20T17:58:27.440Z,12.35
2023-05-20T18:00:55.966Z,12.30
2023-05-20T18:03:24.301Z,12.28
2023-05-20T18:05:55.054Z,12.21
2023-05-20T18:08:25.640Z,12.19
2023-05-20T18:10:53.949Z,12.16
2023-05-20T18:13:22.240Z,12.17
2023-05-20T18:15:50.850Z,12.18
2023-05-20T18:18:19.151Z,12.22
2023-05-20T18:20:47.508Z,12.18
2023-05-20T18:23:16.174Z,12.20
2023-05-20T18:25:44.580Z,12.21
2023-05-20T18:28:13.444Z,12.20
2023-05-20T18:30:41.647Z,12.20
2023-05-20T18:33:10.008Z,12.13
2023-05-20T18:35:39.420Z,12.08
2023-05-20T18:38:07.736Z,12.07
2023-05-20T18:40:36.498Z,12.03
2023-05-20T18:43:05.154Z,11.95
2023-05-20T18:45:33.461Z,11.91
2023-05-20T18:48:01.887Z,11.87
2023-05-20T18:50:30.159Z,11.84
2023-05-20T18:52:58.494Z,11.83
2023-05-20T18:55:27.218Z,11.79
2023-05-20T18:57:55.902Z,11.75
2023-05-20T19:00:24.560Z,11.72
2023-05-20T19:02:52.835Z,11.64
2023-05-20T19:05:21.566Z,11.56
2023-05-20T19:07:49.807Z,11.50
2023-05-20T19:10:18.230Z,11.46
2023-05-20T19:12:46.558Z,11.42
2023-05-20T19:15:15.994Z,11.39
2023-05-20T19:17:44.271Z,11.39
2023-05-20T19:20:14.454Z,11.31
2023-05-20T19:22:42.790Z,11.21
2023-05-20T19:25:11.654Z,11.13
2023-05-20T19:27:39.977Z,11.05
2023-05-20T19:30:10.874Z,10.98
2023-05-20T19:32:40.033Z,10.89
2023-05-20T19:35:08.858Z,10.85
2023-05-20T19:37:37.179Z,10.81
2023-05-20T19:40:06.901Z,10.75
2023-05-20T19:42:35.229Z,10.69
2023-05-20T19:45:03.779Z,10.65
2023-05-20T19:47:32.161Z,10.58
2023-05-20T19:50:00.449Z,10.49
2023-05-20T19:52:28.720Z,10.41
2023-05-20T19:54:57.106Z,10.36
2023-05-20T19:57:26.149Z,10.32
2023-05-20T19:59:54.658Z,10.33
2023-05-20T20:02:23.009Z,10.34
2023-05-20T20:04:51.961Z,10.27
2023-05-20T20:07:20.214Z,10.22
2023-05-20T20:09:51.786Z,10.15
2023-05-20T20:12:20.025Z,10.12
2023-05-20T20:14:48.358Z,10.10
2023-05-20T20:17:17.716Z,10.09
2023-05-20T20:19:49.217Z,10.11
2023-05-20T20:22:17.516Z,10.16
2023-05-20T20:24:45.775Z,10.22
2023-05-20T20:27:14.075Z,10.28
2023-05-20T20:29:42.946Z,10.30
2023-05-20T20:32:12.014Z,10.30
2023-05-20T20:34:40.361Z,10.32
2023-05-20T20:37:08.895Z,10.34
2023-05-20T20:39:37.508Z,10.31
2023-05-20T20:42:06.784Z,10.31
2023-05-20T20:44:35.008Z,10.38
2023-05-20T20:47:04.618Z,10.42
2023-05-20T20:49:33.280Z,10.39
2023-05-20T20:52:01.518Z,10.42
2023-05-20T20:54:29.806Z,10.45
2023-05-20T20:57:00.108Z,10.50
2023-05-20T20:59:28.998Z,10.50
2023-05-20T21:01:58.002Z,10.45
2023-05-20T21:04:28.046Z,10.45
2023-05-20T21:06:56.424Z,10.47
2023-05-20T21:09:24.760Z,10.48
2023-05-20T21:11:52.983Z,10.42
2023-05-20T21:14:21.230Z,10.38
2023-05-20T21:16:49.540Z,10.33
2023-05-20T21:19:17.907Z,10.28
2023-05-20T21:21:46.195Z,10.25
2023-05-20T21:24:14.657Z,10.21
2023-05-20T21:26:42.898Z,10.22
2023-05-20T21:29:12.221Z,10.22
2023-05-20T21:31:40.508Z,10.17
2023-05-20T21:34:08.782Z,10.16
2023-05-20T21:36:37.093Z,10.12
2023-05-20T21:39:06.055Z,10.00
2023-05-20T21:41:34.293Z,9.94
2023-05-20T21:44:02.548Z,9.88
2023-05-20T21:46:30.859Z,9.80
2023-05-20T21:48:59.155Z,9.77
2023-05-20T21:51:27.453Z,9.73
2023-05-20T21:53:55.685Z,9.68
2023-05-20T21:56:24.074Z,9.64
2023-05-20T21:58:52.403Z,9.62
2023-05-20T22:01:20.725Z,9.59
2023-05-20T22:03:51.704Z,9.62
2023-05-20T22:06:21.602Z,9.66
2023-05-20T22:08:50.106Z,9.72
2023-05-20T22:11:19.942Z,9.77
2023-05-20T22:13:48.267Z,9.81
2023-05-20T22:16:16.892Z,9.78
2023-05-20T22:18:48.059Z,9.74
2023-05-20T22:21:16.659Z,9.73
2023-05-20T22:23:44.929Z,9.69
2023-05-20T22:26:13.222Z,9.72
2023-05-20T22:28:41.573Z,9.73
2023-05-20T22:31:09.860Z,9.72
2023-05-20T22:33:41.495Z,9.73
2023-05-20T22:36:09.999Z,9.75
2023-05-20T22:38:38.261Z,9.81
2023-05-20T22:41:06.516Z,9.86
2023-05-20T22:43:36.023Z,9.92
2023-05-20T22:46:04.278Z,9.97
2023-05-20T22:48:32.703Z,9.97
2023-05-20T22:51:01.504Z,10.00
2023-05-20T22:53:29.842Z,10.03
2023-05-20T22:56:00.066Z,10.02
2023-05-20T22:58:29.875Z,9.96
2023-05-20T23:00:59.778Z,9.96
2023-05-20T23:03:28.486Z,9.96
2023-05-20T23:05:56.787Z,10.02
2023-05-20T23:08:25.282Z,10.10
2023-05-20T23:10:53.591Z,10.08
2023-05-20T23:13:21.837Z,10.04
2023-05-20T23:15:50.290Z,10.02
2023-05-20T23:18:18.935Z,10.00
2023-05-20T23:20:47.871Z,10.03
2023-05-20T23:23:16.555Z,10.07
2023-05-20T23:25:46.442Z,10.10
2023-05-20T23:28:14.841Z,10.17
2023-05-20T23:30:43.080Z,10.26
2023-05-20T23:33:11.359Z,10.32
2023-05-20T23:35:39.640Z,10.35
2023-05-20T23:38:07.911Z,10.35
2023-05-20T23:40:36.412Z,10.39
2023-05-20T23:43:04.630Z,10.47
2023-05-20T23:45:32.881Z,10.50
2023-05-20T23:48:03.955Z,10.51
2023-05-20T23:50:32.934Z,10.58
2023-05-20T23:53:01.330Z,10.65
2023-05-20T23:55:29.591Z,10.70
2023-05-20T23:57:58.014Z,10.66
